sensor_id;sensor_type;location;lat;lon;timestamp;P1;durP1;ratioP1;P2;durP2;ratioP2
78875;SDS011;68253;52.506;5.486;2024-03-23T00:54:32;15.98;;;2.10;;
78875;SDS011;68253;52.506;5.486;2024-03-23T00:56:58;16.20;;;2.67;;
78875;SDS011;68253;52.506;5.486;2024-03-23T00:59:24;17.42;;;2.38;;
78875;SDS011;68253;52.506;5.486;2024-03-23T01:01:54;19.45;;;3.17;;
78875;SDS011;68253;52.506;5.486;2024-03-23T01:04:20;14.80;;;1.92;;
78875;SDS011;68253;52.506;5.486;2024-03-23T01:06:47;12.35;;;1.83;;
78875;SDS011;68253;52.506;5.486;2024-03-23T01:09:13;11.77;;;2.05;;
78875;SDS011;68253;52.506;5.486;2024-03-23T01:11:39;9.63;;;1.60;;
78875;SDS011;68253;52.506;5.486;2024-03-23T01:14:05;15.20;;;2.47;;
78875;SDS011;68253;52.506;5.486;2024-03-23T01:16:32;12.52;;;1.85;;
78875;SDS011;68253;52.506;5.486;2024-03-23T01:18:58;13.68;;;1.83;;
78875;SDS011;68253;52.506;5.486;2024-03-23T01:21:24;16.63;;;2.20;;
78875;SDS011;68253;52.506;5.486;2024-03-23T01:23:50;12.57;;;1.67;;
78875;SDS011;68253;52.506;5.486;2024-03-23T01:26:16;12.50;;;1.77;;
78875;SDS011;68253;52.506;5.486;2024-03-23T01:28:42;12.82;;;1.48;;
78875;SDS011;68253;52.506;5.486;2024-03-23T01:31:08;14.02;;;1.83;;
78875;SDS011;68253;52.506;5.486;2024-03-23T01:33:35;14.63;;;1.98;;
78875;SDS011;68253;52.506;5.486;2024-03-23T01:36:01;13.65;;;1.63;;
78875;SDS011;68253;52.506;5.486;2024-03-23T01:38:27;12.95;;;1.67;;
78875;SDS011;68253;52.506;5.486;2024-03-23T01:40:57;7.13;;;1.30;;
78875;SDS011;68253;52.506;5.486;2024-03-23T01:43:23;12.13;;;1.55;;
78875;SDS011;68253;52.506;5.486;2024-03-23T01:45:50;11.52;;;1.20;;
78875;SDS011;68253;52.506;5.486;2024-03-23T01:48:21;11.55;;;1.95;;
78875;SDS011;68253;52.506;5.486;2024-03-23T01:50:47;8.88;;;2.05;;
78875;SDS011;68253;52.506;5.486;2024-03-23T01:53:14;14.15;;;1.67;;
78875;SDS011;68253;52.506;5.486;2024-03-23T01:55:43;11.60;;;1.63;;
78875;SDS011;68253;52.506;5.486;2024-03-23T01:58:09;12.57;;;1.70;;
78875;SDS011;68253;52.506;5.486;2024-03-23T02:00:36;9.00;;;1.33;;
78875;SDS011;68253;52.506;5.486;2024-03-23T02:03:02;10.30;;;1.50;;
78875;SDS011;68253;52.506;5.486;2024-03-23T02:05:54;8.57;;;1.13;;
78875;SDS011;68253;52.506;5.486;2024-03-23T02:08:22;8.82;;;1.33;;
78875;SDS011;68253;52.506;5.486;2024-03-23T02:10:49;11.98;;;1.70;;
78875;SDS011;68253;52.506;5.486;2024-03-23T02:13:18;12.00;;;1.45;;
78875;SDS011;68253;52.506;5.486;2024-03-23T02:15:44;9.43;;;1.23;;
78875;SDS011;68253;52.506;5.486;2024-03-23T02:18:11;13.35;;;1.50;;
78875;SDS011;68253;52.506;5.486;2024-03-23T02:20:37;7.53;;;1.02;;
78875;SDS011;68253;52.506;5.486;2024-03-23T02:23:04;9.65;;;1.30;;
78875;SDS011;68253;52.506;5.486;2024-03-23T02:25:34;11.90;;;1.30;;
78875;SDS011;68253;52.506;5.486;2024-03-23T02:28:00;10.32;;;1.30;;
78875;SDS011;68253;52.506;5.486;2024-03-23T02:30:26;9.65;;;1.20;;
78875;SDS011;68253;52.506;5.486;2024-03-23T02:32:52;12.50;;;1.55;;
78875;SDS011;68253;52.506;5.486;2024-03-23T02:35:18;10.57;;;1.20;;
78875;SDS011;68253;52.506;5.486;2024-03-23T02:37:45;12.60;;;1.65;;
78875;SDS011;68253;52.506;5.486;2024-03-23T02:40:12;14.55;;;1.60;;
78875;SDS011;68253;52.506;5.486;2024-03-23T02:42:38;10.63;;;1.13;;
78875;SDS011;68253;52.506;5.486;2024-03-23T02:45:04;11.27;;;1.40;;
78875;SDS011;68253;52.506;5.486;2024-03-23T02:47:30;13.20;;;1.05;;
78875;SDS011;68253;52.506;5.486;2024-03-23T02:49:57;10.60;;;1.10;;
78875;SDS011;68253;52.506;5.486;2024-03-23T02:52:23;13.40;;;1.48;;
78875;SDS011;68253;52.506;5.486;2024-03-23T02:54:49;8.23;;;1.02;;
78875;SDS011;68253;52.506;5.486;2024-03-23T02:57:15;12.30;;;1.20;;
78875;SDS011;68253;52.506;5.486;2024-03-23T02:59:41;9.98;;;1.30;;
78875;SDS011;68253;52.506;5.486;2024-03-23T03:02:07;16.00;;;1.65;;
78875;SDS011;68253;52.506;5.486;2024-03-23T03:04:33;10.05;;;1.52;;
78875;SDS011;68253;52.506;5.486;2024-03-23T03:07:00;10.27;;;1.55;;
78875;SDS011;68253;52.506;5.486;2024-03-23T03:09:26;9.95;;;1.20;;
78875;SDS011;68253;52.506;5.486;2024-03-23T03:11:52;11.23;;;1.20;;
78875;SDS011;68253;52.506;5.486;2024-03-23T03:14:18;11.10;;;1.20;;
78875;SDS011;68253;52.506;5.486;2024-03-23T03:16:45;9.63;;;1.30;;
78875;SDS011;68253;52.506;5.486;2024-03-23T03:19:11;10.00;;;1.20;;
78875;SDS011;68253;52.506;5.486;2024-03-23T03:21:38;7.90;;;0.80;;
78875;SDS011;68253;52.506;5.486;2024-03-23T03:24:05;9.88;;;1.30;;
78875;SDS011;68253;52.506;5.486;2024-03-23T03:26:32;7.18;;;0.90;;
78875;SDS011;68253;52.506;5.486;2024-03-23T03:28:58;11.32;;;1.30;;
78875;SDS011;68253;52.506;5.486;2024-03-23T03:31:24;11.63;;;1.67;;
78875;SDS011;68253;52.506;5.486;2024-03-23T03:33:50;6.07;;;0.85;;
78875;SDS011;68253;52.506;5.486;2024-03-23T03:36:17;10.38;;;1.10;;
78875;SDS011;68253;52.506;5.486;2024-03-23T03:38:43;8.70;;;0.90;;
78875;SDS011;68253;52.506;5.486;2024-03-23T03:41:09;8.10;;;1.20;;
78875;SDS011;68253;52.506;5.486;2024-03-23T03:43:35;8.75;;;1.20;;
78875;SDS011;68253;52.506;5.486;2024-03-23T03:46:01;9.73;;;1.38;;
78875;SDS011;68253;52.506;5.486;2024-03-23T03:48:28;10.32;;;1.30;;
78875;SDS011;68253;52.506;5.486;2024-03-23T03:50:54;9.95;;;1.13;;
78875;SDS011;68253;52.506;5.486;2024-03-23T03:53:20;7.32;;;0.93;;
78875;SDS011;68253;52.506;5.486;2024-03-23T03:55:46;14.10;;;1.40;;
78875;SDS011;68253;52.506;5.486;2024-03-23T03:58:13;9.38;;;1.17;;
78875;SDS011;68253;52.506;5.486;2024-03-23T04:00:39;10.70;;;1.10;;
78875;SDS011;68253;52.506;5.486;2024-03-23T04:03:06;9.23;;;1.02;;
78875;SDS011;68253;52.506;5.486;2024-03-23T04:05:32;8.63;;;1.00;;
78875;SDS011;68253;52.506;5.486;2024-03-23T04:07:58;8.52;;;0.95;;
78875;SDS011;68253;52.506;5.486;2024-03-23T04:10:24;6.65;;;0.82;;
78875;SDS011;68253;52.506;5.486;2024-03-23T04:12:50;5.90;;;0.82;;
78875;SDS011;68253;52.506;5.486;2024-03-23T04:15:16;6.32;;;0.82;;
78875;SDS011;68253;52.506;5.486;2024-03-23T04:17:42;9.48;;;0.95;;
78875;SDS011;68253;52.506;5.486;2024-03-23T04:20:09;8.77;;;0.98;;
78875;SDS011;68253;52.506;5.486;2024-03-23T04:22:37;8.15;;;0.90;;
78875;SDS011;68253;52.506;5.486;2024-03-23T04:25:03;6.25;;;0.75;;
78875;SDS011;68253;52.506;5.486;2024-03-23T04:27:33;7.57;;;1.25;;
78875;SDS011;68253;52.506;5.486;2024-03-23T04:29:59;7.50;;;0.80;;
78875;SDS011;68253;52.506;5.486;2024-03-23T04:32:29;8.82;;;0.80;;
78875;SDS011;68253;52.506;5.486;2024-03-23T04:34:55;8.43;;;1.30;;
78875;SDS011;68253;52.506;5.486;2024-03-23T04:37:22;6.10;;;0.70;;
78875;SDS011;68253;52.506;5.486;2024-03-23T04:39:48;7.20;;;0.88;;
78875;SDS011;68253;52.506;5.486;2024-03-23T04:42:14;7.03;;;0.80;;
78875;SDS011;68253;52.506;5.486;2024-03-23T04:44:41;9.80;;;1.13;;
78875;SDS011;68253;52.506;5.486;2024-03-23T04:47:07;10.05;;;1.10;;
78875;SDS011;68253;52.506;5.486;2024-03-23T04:49:33;9.45;;;0.88;;
78875;SDS011;68253;52.506;5.486;2024-03-23T04:52:04;6.38;;;0.80;;
78875;SDS011;68253;52.506;5.486;2024-03-23T04:54:30;8.30;;;0.90;;
78875;SDS011;68253;52.506;5.486;2024-03-23T04:56:58;11.80;;;1.50;;
78875;SDS011;68253;52.506;5.486;2024-03-23T04:59:24;10.75;;;1.48;;
78875;SDS011;68253;52.506;5.486;2024-03-23T05:01:50;10.30;;;1.30;;
78875;SDS011;68253;52.506;5.486;2024-03-23T05:04:16;10.75;;;1.17;;
78875;SDS011;68253;52.506;5.486;2024-03-23T05:06:42;6.30;;;0.95;;
78875;SDS011;68253;52.506;5.486;2024-03-23T05:09:08;8.25;;;1.17;;
78875;SDS011;68253;52.506;5.486;2024-03-23T05:11:38;8.10;;;0.98;;
78875;SDS011;68253;52.506;5.486;2024-03-23T05:14:04;10.20;;;1.30;;
78875;SDS011;68253;52.506;5.486;2024-03-23T05:16:30;11.05;;;1.13;;
78875;SDS011;68253;52.506;5.486;2024-03-23T05:18:56;10.80;;;1.20;;
78875;SDS011;68253;52.506;5.486;2024-03-23T05:21:22;8.85;;;1.35;;
78875;SDS011;68253;52.506;5.486;2024-03-23T05:23:48;10.55;;;0.82;;
78875;SDS011;68253;52.506;5.486;2024-03-23T05:26:14;10.95;;;1.00;;
78875;SDS011;68253;52.506;5.486;2024-03-23T05:28:41;6.35;;;0.82;;
78875;SDS011;68253;52.506;5.486;2024-03-23T05:31:07;10.50;;;1.27;;
78875;SDS011;68253;52.506;5.486;2024-03-23T05:33:35;11.80;;;1.52;;
78875;SDS011;68253;52.506;5.486;2024-03-23T05:36:03;6.90;;;0.98;;
78875;SDS011;68253;52.506;5.486;2024-03-23T05:38:30;10.68;;;1.20;;
78875;SDS011;68253;52.506;5.486;2024-03-23T05:40:56;9.85;;;1.13;;
78875;SDS011;68253;52.506;5.486;2024-03-23T05:43:23;9.13;;;1.02;;
78875;SDS011;68253;52.506;5.486;2024-03-23T05:45:53;10.23;;;1.40;;
78875;SDS011;68253;52.506;5.486;2024-03-23T05:48:30;11.15;;;1.00;;
78875;SDS011;68253;52.506;5.486;2024-03-23T05:50:57;10.43;;;0.95;;
78875;SDS011;68253;52.506;5.486;2024-03-23T05:53:23;6.90;;;1.10;;
78875;SDS011;68253;52.506;5.486;2024-03-23T05:55:50;8.07;;;1.00;;
78875;SDS011;68253;52.506;5.486;2024-03-23T05:58:19;12.13;;;1.23;;
78875;SDS011;68253;52.506;5.486;2024-03-23T06:00:46;8.75;;;1.17;;
78875;SDS011;68253;52.506;5.486;2024-03-23T06:03:12;8.63;;;1.20;;
78875;SDS011;68253;52.506;5.486;2024-03-23T06:05:38;9.73;;;1.25;;
78875;SDS011;68253;52.506;5.486;2024-03-23T06:08:05;9.52;;;1.08;;
78875;SDS011;68253;52.506;5.486;2024-03-23T06:10:33;9.13;;;1.05;;
78875;SDS011;68253;52.506;5.486;2024-03-23T06:12:59;9.00;;;1.35;;
78875;SDS011;68253;52.506;5.486;2024-03-23T06:15:25;8.07;;;1.15;;
78875;SDS011;68253;52.506;5.486;2024-03-23T06:17:52;7.53;;;1.10;;
78875;SDS011;68253;52.506;5.486;2024-03-23T06:20:18;9.77;;;1.15;;
78875;SDS011;68253;52.506;5.486;2024-03-23T06:22:45;10.93;;;1.38;;
78875;SDS011;68253;52.506;5.486;2024-03-23T06:25:11;9.77;;;1.20;;
78875;SDS011;68253;52.506;5.486;2024-03-23T06:27:38;9.80;;;1.30;;
78875;SDS011;68253;52.506;5.486;2024-03-23T06:30:05;8.82;;;1.10;;
78875;SDS011;68253;52.506;5.486;2024-03-23T06:32:32;8.20;;;1.20;;
78875;SDS011;68253;52.506;5.486;2024-03-23T06:34:58;13.82;;;1.52;;
78875;SDS011;68253;52.506;5.486;2024-03-23T06:37:24;10.18;;;1.65;;
78875;SDS011;68253;52.506;5.486;2024-03-23T06:39:50;9.40;;;1.25;;
78875;SDS011;68253;52.506;5.486;2024-03-23T06:42:16;9.95;;;1.30;;
78875;SDS011;68253;52.506;5.486;2024-03-23T06:44:43;12.60;;;1.67;;
78875;SDS011;68253;52.506;5.486;2024-03-23T06:47:09;10.35;;;1.48;;
78875;SDS011;68253;52.506;5.486;2024-03-23T06:49:35;9.02;;;1.90;;
78875;SDS011;68253;52.506;5.486;2024-03-23T06:52:01;10.80;;;1.65;;
78875;SDS011;68253;52.506;5.486;2024-03-23T06:54:28;13.07;;;1.80;;
78875;SDS011;68253;52.506;5.486;2024-03-23T06:56:54;11.52;;;1.67;;
78875;SDS011;68253;52.506;5.486;2024-03-23T06:59:20;8.40;;;1.40;;
78875;SDS011;68253;52.506;5.486;2024-03-23T07:01:46;8.27;;;1.30;;
78875;SDS011;68253;52.506;5.486;2024-03-23T07:04:12;11.90;;;1.67;;
78875;SDS011;68253;52.506;5.486;2024-03-23T07:06:42;8.75;;;1.55;;
78875;SDS011;68253;52.506;5.486;2024-03-23T07:09:09;10.43;;;1.60;;
78875;SDS011;68253;52.506;5.486;2024-03-23T07:11:35;9.77;;;1.52;;
78875;SDS011;68253;52.506;5.486;2024-03-23T07:14:02;7.22;;;1.52;;
78875;SDS011;68253;52.506;5.486;2024-03-23T07:16:31;8.23;;;2.10;;
78875;SDS011;68253;52.506;5.486;2024-03-23T07:18:57;8.73;;;1.50;;
78875;SDS011;68253;52.506;5.486;2024-03-23T07:21:24;8.98;;;1.55;;
78875;SDS011;68253;52.506;5.486;2024-03-23T07:23:50;8.00;;;2.17;;
78875;SDS011;68253;52.506;5.486;2024-03-23T07:26:16;13.23;;;2.58;;
78875;SDS011;68253;52.506;5.486;2024-03-23T07:28:43;10.07;;;2.53;;
78875;SDS011;68253;52.506;5.486;2024-03-23T07:31:11;14.55;;;2.50;;
78875;SDS011;68253;52.506;5.486;2024-03-23T07:33:44;10.95;;;2.05;;
78875;SDS011;68253;52.506;5.486;2024-03-23T07:36:12;10.73;;;2.42;;
78875;SDS011;68253;52.506;5.486;2024-03-23T07:38:41;9.10;;;1.50;;
78875;SDS011;68253;52.506;5.486;2024-03-23T07:41:11;11.38;;;4.22;;
78875;SDS011;68253;52.506;5.486;2024-03-23T07:43:41;10.38;;;4.75;;
78875;SDS011;68253;52.506;5.486;2024-03-23T07:46:07;10.57;;;5.20;;
78875;SDS011;68253;52.506;5.486;2024-03-23T07:48:33;17.20;;;11.57;;
78875;SDS011;68253;52.506;5.486;2024-03-23T07:53:30;14.77;;;6.30;;
78875;SDS011;68253;52.506;5.486;2024-03-23T07:55:58;13.38;;;7.25;;
78875;SDS011;68253;52.506;5.486;2024-03-23T07:58:25;9.77;;;3.83;;
78875;SDS011;68253;52.506;5.486;2024-03-23T08:00:55;7.97;;;2.55;;
78875;SDS011;68253;52.506;5.486;2024-03-23T08:03:28;10.70;;;2.92;;
78875;SDS011;68253;52.506;5.486;2024-03-23T08:05:54;9.45;;;1.60;;
78875;SDS011;68253;52.506;5.486;2024-03-23T08:08:20;9.50;;;2.33;;
78875;SDS011;68253;52.506;5.486;2024-03-23T08:10:47;13.18;;;2.63;;
78875;SDS011;68253;52.506;5.486;2024-03-23T08:13:16;13.30;;;2.22;;
78875;SDS011;68253;52.506;5.486;2024-03-23T08:15:43;11.80;;;1.85;;
78875;SDS011;68253;52.506;5.486;2024-03-23T08:18:13;9.43;;;1.35;;
78875;SDS011;68253;52.506;5.486;2024-03-23T08:20:41;10.38;;;1.52;;
78875;SDS011;68253;52.506;5.486;2024-03-23T08:23:07;12.48;;;1.80;;
78875;SDS011;68253;52.506;5.486;2024-03-23T08:25:34;12.82;;;1.23;;
78875;SDS011;68253;52.506;5.486;2024-03-23T08:28:00;7.63;;;1.20;;
78875;SDS011;68253;52.506;5.486;2024-03-23T08:30:27;9.13;;;1.40;;
78875;SDS011;68253;52.506;5.486;2024-03-23T08:32:53;8.90;;;1.20;;
78875;SDS011;68253;52.506;5.486;2024-03-23T08:35:19;7.65;;;1.17;;
78875;SDS011;68253;52.506;5.486;2024-03-23T08:37:46;10.88;;;1.33;;
78875;SDS011;68253;52.506;5.486;2024-03-23T08:40:12;10.80;;;1.27;;
78875;SDS011;68253;52.506;5.486;2024-03-23T08:42:38;7.95;;;1.20;;
78875;SDS011;68253;52.506;5.486;2024-03-23T08:45:04;9.50;;;1.40;;
78875;SDS011;68253;52.506;5.486;2024-03-23T08:47:36;10.88;;;1.35;;
78875;SDS011;68253;52.506;5.486;2024-03-23T08:50:02;11.77;;;1.42;;
78875;SDS011;68253;52.506;5.486;2024-03-23T08:52:29;8.05;;;1.10;;
78875;SDS011;68253;52.506;5.486;2024-03-23T08:54:55;10.15;;;1.30;;
78875;SDS011;68253;52.506;5.486;2024-03-23T08:57:22;8.38;;;1.17;;
78875;SDS011;68253;52.506;5.486;2024-03-23T08:59:49;9.30;;;1.13;;
78875;SDS011;68253;52.506;5.486;2024-03-23T09:02:15;9.02;;;1.08;;
78875;SDS011;68253;52.506;5.486;2024-03-23T09:04:41;8.23;;;1.13;;
78875;SDS011;68253;52.506;5.486;2024-03-23T09:07:08;7.20;;;0.90;;
78875;SDS011;68253;52.506;5.486;2024-03-23T09:09:34;9.73;;;1.45;;
78875;SDS011;68253;52.506;5.486;2024-03-23T09:12:00;8.10;;;0.90;;
78875;SDS011;68253;52.506;5.486;2024-03-23T09:14:26;8.13;;;1.02;;
78875;SDS011;68253;52.506;5.486;2024-03-23T09:16:52;10.68;;;1.40;;
78875;SDS011;68253;52.506;5.486;2024-03-23T09:19:18;7.97;;;1.50;;
78875;SDS011;68253;52.506;5.486;2024-03-23T09:21:45;4.75;;;0.85;;
78875;SDS011;68253;52.506;5.486;2024-03-23T09:24:11;10.73;;;1.13;;
78875;SDS011;68253;52.506;5.486;2024-03-23T09:26:37;11.45;;;1.48;;
78875;SDS011;68253;52.506;5.486;2024-03-23T09:29:03;8.30;;;1.40;;
78875;SDS011;68253;52.506;5.486;2024-03-23T09:31:29;6.47;;;1.05;;
78875;SDS011;68253;52.506;5.486;2024-03-23T09:33:57;7.90;;;0.90;;
78875;SDS011;68253;52.506;5.486;2024-03-23T09:36:24;7.93;;;1.38;;
78875;SDS011;68253;52.506;5.486;2024-03-23T09:38:50;14.05;;;2.13;;
78875;SDS011;68253;52.506;5.486;2024-03-23T09:41:16;10.20;;;2.15;;
78875;SDS011;68253;52.506;5.486;2024-03-23T09:43:42;14.13;;;2.78;;
78875;SDS011;68253;52.506;5.486;2024-03-23T09:46:08;14.90;;;3.80;;
78875;SDS011;68253;52.506;5.486;2024-03-23T09:48:35;15.13;;;2.40;;
78875;SDS011;68253;52.506;5.486;2024-03-23T09:51:02;16.10;;;5.88;;
78875;SDS011;68253;52.506;5.486;2024-03-23T09:53:28;10.57;;;2.00;;
78875;SDS011;68253;52.506;5.486;2024-03-23T09:55:54;12.55;;;3.25;;
78875;SDS011;68253;52.506;5.486;2024-03-23T09:58:23;10.35;;;2.78;;
78875;SDS011;68253;52.506;5.486;2024-03-23T10:00:49;6.65;;;1.27;;
78875;SDS011;68253;52.506;5.486;2024-03-23T10:03:16;11.50;;;2.20;;
78875;SDS011;68253;52.506;5.486;2024-03-23T10:05:42;12.80;;;2.42;;
78875;SDS011;68253;52.506;5.486;2024-03-23T10:10:41;9.50;;;2.45;;
78875;SDS011;68253;52.506;5.486;2024-03-23T10:13:07;9.52;;;2.05;;
78875;SDS011;68253;52.506;5.486;2024-03-23T10:15:34;11.38;;;1.90;;
78875;SDS011;68253;52.506;5.486;2024-03-23T10:18:19;11.38;;;1.98;;
78875;SDS011;68253;52.506;5.486;2024-03-23T10:20:51;11.25;;;1.50;;
78875;SDS011;68253;52.506;5.486;2024-03-23T10:23:25;9.73;;;1.45;;
78875;SDS011;68253;52.506;5.486;2024-03-23T10:25:52;8.30;;;1.25;;
78875;SDS011;68253;52.506;5.486;2024-03-23T10:28:18;10.57;;;1.88;;
78875;SDS011;68253;52.506;5.486;2024-03-23T10:30:44;10.60;;;1.40;;
78875;SDS011;68253;52.506;5.486;2024-03-23T10:33:10;6.25;;;1.10;;
78875;SDS011;68253;52.506;5.486;2024-03-23T10:35:37;9.75;;;1.33;;
78875;SDS011;68253;52.506;5.486;2024-03-23T10:38:06;7.68;;;1.30;;
78875;SDS011;68253;52.506;5.486;2024-03-23T10:40:36;7.63;;;1.73;;
78875;SDS011;68253;52.506;5.486;2024-03-23T10:43:03;8.52;;;1.38;;
78875;SDS011;68253;52.506;5.486;2024-03-23T10:45:30;7.45;;;1.20;;
78875;SDS011;68253;52.506;5.486;2024-03-23T10:47:56;9.25;;;1.60;;
78875;SDS011;68253;52.506;5.486;2024-03-23T10:50:23;10.13;;;1.55;;
78875;SDS011;68253;52.506;5.486;2024-03-23T10:52:49;8.48;;;1.50;;
78875;SDS011;68253;52.506;5.486;2024-03-23T10:55:18;7.50;;;1.48;;
78875;SDS011;68253;52.506;5.486;2024-03-23T10:57:50;7.72;;;1.25;;
78875;SDS011;68253;52.506;5.486;2024-03-23T11:00:18;8.20;;;1.10;;
78875;SDS011;68253;52.506;5.486;2024-03-23T11:02:47;9.02;;;1.05;;
78875;SDS011;68253;52.506;5.486;2024-03-23T11:07:53;5.15;;;0.90;;
78875;SDS011;68253;52.506;5.486;2024-03-23T11:10:37;9.27;;;1.63;;
78875;SDS011;68253;52.506;5.486;2024-03-23T11:13:22;8.55;;;1.00;;
78875;SDS011;68253;52.506;5.486;2024-03-23T11:15:49;8.88;;;1.20;;
78875;SDS011;68253;52.506;5.486;2024-03-23T11:18:20;6.65;;;1.10;;
78875;SDS011;68253;52.506;5.486;2024-03-23T11:20:46;10.90;;;1.63;;
78875;SDS011;68253;52.506;5.486;2024-03-23T11:23:28;10.95;;;1.73;;
78875;SDS011;68253;52.506;5.486;2024-03-23T11:25:54;10.98;;;1.55;;
78875;SDS011;68253;52.506;5.486;2024-03-23T11:28:20;10.95;;;1.80;;
78875;SDS011;68253;52.506;5.486;2024-03-23T11:30:47;9.80;;;1.15;;
78875;SDS011;68253;52.506;5.486;2024-03-23T11:33:14;12.52;;;1.58;;
78875;SDS011;68253;52.506;5.486;2024-03-23T11:35:41;11.07;;;1.48;;
78875;SDS011;68253;52.506;5.486;2024-03-23T11:38:11;10.98;;;1.10;;
78875;SDS011;68253;52.506;5.486;2024-03-23T11:40:41;7.00;;;1.10;;
78875;SDS011;68253;52.506;5.486;2024-03-23T11:43:09;5.47;;;0.65;;
78875;SDS011;68253;52.506;5.486;2024-03-23T11:45:38;7.45;;;0.90;;
78875;SDS011;68253;52.506;5.486;2024-03-23T11:50:42;6.47;;;0.90;;
78875;SDS011;68253;52.506;5.486;2024-03-23T11:53:17;8.82;;;1.35;;
78875;SDS011;68253;52.506;5.486;2024-03-23T11:58:24;9.52;;;1.20;;
78875;SDS011;68253;52.506;5.486;2024-03-23T12:00:58;10.48;;;1.30;;
78875;SDS011;68253;52.506;5.486;2024-03-23T12:03:25;8.02;;;1.10;;
78875;SDS011;68253;52.506;5.486;2024-03-23T12:05:54;7.07;;;1.10;;
78875;SDS011;68253;52.506;5.486;2024-03-23T12:08:31;13.45;;;1.30;;
78875;SDS011;68253;52.506;5.486;2024-03-23T12:13:38;5.90;;;0.93;;
78875;SDS011;68253;52.506;5.486;2024-03-23T12:16:10;4.72;;;0.75;;
78875;SDS011;68253;52.506;5.486;2024-03-23T12:18:42;7.25;;;0.98;;
78875;SDS011;68253;52.506;5.486;2024-03-23T12:21:09;4.90;;;0.73;;
78875;SDS011;68253;52.506;5.486;2024-03-23T12:23:36;6.78;;;0.80;;
78875;SDS011;68253;52.506;5.486;2024-03-23T12:26:04;7.53;;;1.10;;
78875;SDS011;68253;52.506;5.486;2024-03-23T12:28:31;8.95;;;1.10;;
78875;SDS011;68253;52.506;5.486;2024-03-23T12:30:57;8.95;;;1.10;;
78875;SDS011;68253;52.506;5.486;2024-03-23T12:33:24;10.38;;;1.38;;
78875;SDS011;68253;52.506;5.486;2024-03-23T12:35:50;11.38;;;1.50;;
78875;SDS011;68253;52.506;5.486;2024-03-23T12:38:17;10.88;;;1.42;;
78875;SDS011;68253;52.506;5.486;2024-03-23T12:40:46;8.40;;;1.30;;
78875;SDS011;68253;52.506;5.486;2024-03-23T12:43:16;7.38;;;1.10;;
78875;SDS011;68253;52.506;5.486;2024-03-23T12:45:49;10.10;;;1.42;;
78875;SDS011;68253;52.506;5.486;2024-03-23T12:48:18;8.30;;;1.13;;
78875;SDS011;68253;52.506;5.486;2024-03-23T12:50:44;6.60;;;1.05;;
78875;SDS011;68253;52.506;5.486;2024-03-23T12:53:10;7.88;;;1.52;;
78875;SDS011;68253;52.506;5.486;2024-03-23T12:55:37;8.35;;;1.27;;
78875;SDS011;68253;52.506;5.486;2024-03-23T12:58:03;8.10;;;1.25;;
78875;SDS011;68253;52.506;5.486;2024-03-23T13:00:30;7.35;;;0.93;;
78875;SDS011;68253;52.506;5.486;2024-03-23T13:02:56;4.90;;;1.05;;
78875;SDS011;68253;52.506;5.486;2024-03-23T13:05:22;10.57;;;1.40;;
78875;SDS011;68253;52.506;5.486;2024-03-23T13:07:48;7.72;;;1.30;;
78875;SDS011;68253;52.506;5.486;2024-03-23T13:10:14;11.88;;;1.58;;
78875;SDS011;68253;52.506;5.486;2024-03-23T13:12:41;10.32;;;1.42;;
78875;SDS011;68253;52.506;5.486;2024-03-23T13:15:08;4.28;;;0.90;;
78875;SDS011;68253;52.506;5.486;2024-03-23T13:17:34;11.10;;;1.48;;
78875;SDS011;68253;52.506;5.486;2024-03-23T13:20:00;7.97;;;1.10;;
78875;SDS011;68253;52.506;5.486;2024-03-23T13:22:27;7.82;;;1.15;;
78875;SDS011;68253;52.506;5.486;2024-03-23T13:24:53;7.43;;;1.05;;
78875;SDS011;68253;52.506;5.486;2024-03-23T13:27:20;7.53;;;1.23;;
78875;SDS011;68253;52.506;5.486;2024-03-23T13:29:46;9.27;;;1.73;;
78875;SDS011;68253;52.506;5.486;2024-03-23T13:32:12;12.48;;;1.30;;
78875;SDS011;68253;52.506;5.486;2024-03-23T13:34:39;8.93;;;0.95;;
78875;SDS011;68253;52.506;5.486;2024-03-23T13:37:05;12.65;;;1.55;;
78875;SDS011;68253;52.506;5.486;2024-03-23T13:39:32;8.70;;;1.08;;
78875;SDS011;68253;52.506;5.486;2024-03-23T13:41:59;7.15;;;0.90;;
78875;SDS011;68253;52.506;5.486;2024-03-23T13:44:25;8.90;;;1.08;;
78875;SDS011;68253;52.506;5.486;2024-03-23T13:46:52;8.48;;;0.90;;
78875;SDS011;68253;52.506;5.486;2024-03-23T13:49:26;8.27;;;0.95;;
78875;SDS011;68253;52.506;5.486;2024-03-23T13:54:20;6.50;;;0.80;;
78875;SDS011;68253;52.506;5.486;2024-03-23T13:56:56;7.65;;;1.00;;
78875;SDS011;68253;52.506;5.486;2024-03-23T13:59:22;14.55;;;1.10;;
78875;SDS011;68253;52.506;5.486;2024-03-23T14:01:49;10.57;;;1.10;;
78875;SDS011;68253;52.506;5.486;2024-03-23T14:04:16;5.57;;;1.27;;
78875;SDS011;68253;52.506;5.486;2024-03-23T14:06:44;15.60;;;4.85;;
78875;SDS011;68253;52.506;5.486;2024-03-23T14:09:11;12.90;;;4.47;;
78875;SDS011;68253;52.506;5.486;2024-03-23T14:11:38;7.88;;;2.10;;
78875;SDS011;68253;52.506;5.486;2024-03-23T14:14:05;8.65;;;1.67;;
78875;SDS011;68253;52.506;5.486;2024-03-23T14:16:32;5.68;;;0.93;;
78875;SDS011;68253;52.506;5.486;2024-03-23T14:18:58;8.38;;;1.27;;
78875;SDS011;68253;52.506;5.486;2024-03-23T14:21:25;9.55;;;1.33;;
78875;SDS011;68253;52.506;5.486;2024-03-23T14:23:51;8.35;;;1.88;;
78875;SDS011;68253;52.506;5.486;2024-03-23T14:26:17;8.05;;;1.77;;
78875;SDS011;68253;52.506;5.486;2024-03-23T14:28:44;7.68;;;1.40;;
78875;SDS011;68253;52.506;5.486;2024-03-23T14:31:10;6.85;;;1.05;;
78875;SDS011;68253;52.506;5.486;2024-03-23T14:33:37;5.45;;;1.15;;
78875;SDS011;68253;52.506;5.486;2024-03-23T14:36:04;8.23;;;1.17;;
78875;SDS011;68253;52.506;5.486;2024-03-23T14:38:30;5.88;;;0.90;;
78875;SDS011;68253;52.506;5.486;2024-03-23T14:41:00;10.00;;;0.95;;
78875;SDS011;68253;52.506;5.486;2024-03-23T14:43:28;6.53;;;1.25;;
78875;SDS011;68253;52.506;5.486;2024-03-23T14:46:10;4.97;;;1.10;;
78875;SDS011;68253;52.506;5.486;2024-03-23T14:48:41;5.15;;;1.40;;
78875;SDS011;68253;52.506;5.486;2024-03-23T14:51:09;3.75;;;0.98;;
78875;SDS011;68253;52.506;5.486;2024-03-23T14:53:36;3.67;;;0.63;;
78875;SDS011;68253;52.506;5.486;2024-03-23T14:56:07;3.88;;;0.77;;
78875;SDS011;68253;52.506;5.486;2024-03-23T14:58:34;2.40;;;0.50;;
78875;SDS011;68253;52.506;5.486;2024-03-23T15:01:04;4.38;;;0.60;;
78875;SDS011;68253;52.506;5.486;2024-03-23T15:03:34;6.15;;;0.60;;
78875;SDS011;68253;52.506;5.486;2024-03-23T15:06:08;5.70;;;0.85;;
78875;SDS011;68253;52.506;5.486;2024-03-23T15:08:35;6.90;;;1.30;;
78875;SDS011;68253;52.506;5.486;2024-03-23T15:11:02;5.28;;;1.00;;
78875;SDS011;68253;52.506;5.486;2024-03-23T15:13:34;8.80;;;1.48;;
78875;SDS011;68253;52.506;5.486;2024-03-23T15:16:01;7.28;;;1.13;;
78875;SDS011;68253;52.506;5.486;2024-03-23T15:18:29;4.90;;;0.80;;
78875;SDS011;68253;52.506;5.486;2024-03-23T15:20:56;4.68;;;0.60;;
78875;SDS011;68253;52.506;5.486;2024-03-23T15:23:24;1.70;;;0.57;;
78875;SDS011;68253;52.506;5.486;2024-03-23T15:25:59;2.45;;;0.50;;
78875;SDS011;68253;52.506;5.486;2024-03-23T15:28:27;9.57;;;0.90;;
78875;SDS011;68253;52.506;5.486;2024-03-23T15:31:07;6.43;;;0.75;;
78875;SDS011;68253;52.506;5.486;2024-03-23T15:33:35;4.45;;;0.50;;
78875;SDS011;68253;52.506;5.486;2024-03-23T15:36:02;7.13;;;0.60;;
78875;SDS011;68253;52.506;5.486;2024-03-23T15:38:29;5.05;;;0.60;;
78875;SDS011;68253;52.506;5.486;2024-03-23T15:40:57;6.88;;;1.00;;
78875;SDS011;68253;52.506;5.486;2024-03-23T15:43:23;8.15;;;0.85;;
78875;SDS011;68253;52.506;5.486;2024-03-23T15:45:56;6.55;;;0.90;;
78875;SDS011;68253;52.506;5.486;2024-03-23T15:48:26;7.50;;;0.80;;
78875;SDS011;68253;52.506;5.486;2024-03-23T15:50:53;6.75;;;1.02;;
78875;SDS011;68253;52.506;5.486;2024-03-23T15:53:20;9.40;;;1.38;;
78875;SDS011;68253;52.506;5.486;2024-03-23T15:55:54;9.10;;;1.38;;